Time;durP1;ratioP1;P1;durP2;ratioP2;P2;SDS_P1;SDS_P2;PMS_P1;PMS_P2;Temp;Humidity;BMP_temperature;BMP_pressure;BME280_temperature;BME280_humidity;BME280_pressure;Samples;Min_cycle;Max_cycle;Signal;HPM_P1;HPM_P2
2022/03/04 00:01:36;;;;;;;21.52;16.60;;;2.40;99.90;;;;;;5072642;28;20216;-71
2022/03/04 00:04:03;;;;;;;22.33;15.30;;;2.40;99.90;;;;;;5074780;28;20207;-71
2022/03/04 00:06:29;;;;;;;22.00;15.80;;;2.40;99.90;;;;;;5073914;28;20215;-71
2022/03/04 00:08:56;;;;;;;18.60;13.75;;;2.50;99.90;;;;;;5075616;28;20196;-71
2022/03/04 00:11:22;;;;;;;20.63;13.88;;;2.50;99.90;;;;;;5075087;28;20211;-71
2022/03/04 00:13:49;;;;;;;18.30;13.32;;;2.50;99.90;;;;;;5075541;28;20269;-71
2022/03/04 00:16:15;;;;;;;17.90;13.40;;;2.60;99.90;;;;;;5074609;28;20204;-70
2022/03/04 00:18:41;;;;;;;24.00;13.95;;;2.60;99.90;;;;;;5074527;28;20667;-70
2022/03/04 00:21:09;;;;;;;18.05;14.20;;;2.60;99.90;;;;;;5075609;28;20226;-71
2022/03/04 00:23:36;;;;;;;21.13;15.60;;;2.60;99.90;;;;;;5074010;28;20202;-72
2022/03/04 00:26:04;;;;;;;17.95;14.10;;;2.70;99.90;;;;;;5074256;28;20199;-70
2022/03/04 00:28:31;;;;;;;20.25;13.85;;;2.70;99.90;;;;;;5074113;28;20196;-69
2022/03/04 00:30:57;;;;;;;20.60;14.88;;;2.70;99.90;;;;;;5072798;28;20196;-70
2022/03/04 00:33:23;;;;;;;20.52;14.57;;;2.70;99.90;;;;;;5074245;28;20195;-70
2022/03/04 00:35:52;;;;;;;24.65;16.58;;;2.70;99.90;;;;;;5076225;28;20207;-69
2022/03/04 00:38:19;;;;;;;24.33;15.85;;;2.70;99.90;;;;;;5078420;28;20204;-70
2022/03/04 00:40:45;;;;;;;19.85;14.20;;;2.70;99.90;;;;;;5078069;28;20269;-70
2022/03/04 00:43:12;;;;;;;19.30;13.55;;;2.70;99.90;;;;;;5077910;28;20211;-69
2022/03/04 00:45:38;;;;;;;18.85;13.05;;;2.70;99.90;;;;;;5077805;28;20751;-69
2022/03/04 00:48:04;;;;;;;20.77;14.65;;;2.70;99.90;;;;;;5077387;28;20732;-72
2022/03/04 00:50:31;;;;;;;22.60;14.45;;;2.70;99.90;;;;;;5079083;28;20261;-71
2022/03/04 00:52:58;;;;;;;19.88;13.90;;;2.70;99.90;;;;;;5076583;28;20545;-71
2022/03/04 00:55:24;;;;;;;21.60;14.10;;;2.60;99.90;;;;;;5079051;28;20214;-71
2022/03/04 00:57:50;;;;;;;25.08;14.57;;;2.50;99.90;;;;;;5079502;28;20287;-71
2022/03/04 01:00:17;;;;;;;22.60;15.75;;;2.40;99.90;;;;;;5080802;28;20568;-71
2022/03/04 01:02:43;;;;;;;17.33;14.15;;;2.40;99.90;;;;;;5080163;28;20237;-72
2022/03/04 01:05:10;;;;;;;25.85;15.50;;;2.40;99.90;;;;;;5080215;28;20357;-71
2022/03/04 01:07:36;;;;;;;22.58;15.77;;;2.40;99.90;;;;;;5079675;28;20216;-71
2022/03/04 01:10:03;;;;;;;22.98;15.40;;;2.30;99.90;;;;;;5080262;28;20245;-71
2022/03/04 01:12:29;;;;;;;19.48;15.82;;;2.10;99.90;;;;;;5081110;28;20683;-71
2022/03/04 01:14:56;;;;;;;24.23;15.95;;;2.10;99.90;;;;;;5080717;28;20212;-71
2022/03/04 01:17:22;;;;;;;22.20;15.05;;;2.10;99.90;;;;;;5081396;28;20196;-71
2022/03/04 01:19:49;;;;;;;21.08;15.82;;;2.10;99.90;;;;;;5079691;28;20673;-71
2022/03/04 01:22:15;;;;;;;25.20;16.67;;;2.10;99.90;;;;;;5079561;28;20285;-71
2022/03/04 01:24:41;;;;;;;23.08;16.92;;;2.00;99.90;;;;;;5080995;28;20337;-71
2022/03/04 01:27:08;;;;;;;22.50;15.98;;;1.90;99.90;;;;;;5081100;28;20283;-71
2022/03/04 01:29:34;;;;;;;27.30;16.83;;;1.90;99.90;;;;;;5081483;28;20785;-71
2022/03/04 01:32:00;;;;;;;24.40;16.85;;;1.80;99.90;;;;;;5081929;28;20561;-71
2022/03/04 01:34:27;;;;;;;22.67;16.65;;;1.80;99.90;;;;;;5081093;28;20305;-71
2022/03/04 01:36:53;;;;;;;19.33;15.50;;;1.70;99.90;;;;;;5080857;28;20204;-71
2022/03/04 01:39:20;;;;;;;25.33;16.08;;;1.70;99.90;;;;;;5080969;28;20648;-69
2022/03/04 01:41:46;;;;;;;23.77;16.20;;;1.90;99.90;;;;;;5081317;28;20208;-70
2022/03/04 01:44:13;;;;;;;21.05;16.45;;;2.00;99.90;;;;;;5081796;28;20287;-70
2022/03/04 01:46:39;;;;;;;23.27;15.05;;;2.00;99.90;;;;;;5080736;28;20196;-70
2022/03/04 01:49:06;;;;;;;20.15;14.80;;;2.10;99.90;;;;;;5080981;28;20278;-70
2022/03/04 01:51:32;;;;;;;21.42;16.17;;;2.00;99.90;;;;;;5081157;28;20290;-70
2022/03/04 01:53:58;;;;;;;20.70;14.68;;;2.10;99.90;;;;;;5081613;28;20204;-71
2022/03/04 01:56:25;;;;;;;24.75;16.38;;;2.00;99.90;;;;;;5080842;28;20766;-71
2022/03/04 01:58:52;;;;;;;28.30;16.77;;;2.00;99.90;;;;;;5080308;28;20282;-70
2022/03/04 02:01:18;;;;;;;26.20;16.88;;;1.80;99.90;;;;;;5080348;28;20577;-70
2022/03/04 02:03:45;;;;;;;26.38;16.95;;;1.80;99.90;;;;;;5081216;28;20293;-70
2022/03/04 02:06:12;;;;;;;23.50;16.98;;;1.60;99.90;;;;;;5080743;28;20381;-71
2022/03/04 02:08:38;;;;;;;33.15;18.15;;;1.50;99.90;;;;;;5079951;28;20663;-71
2022/03/04 02:11:04;;;;;;;27.23;17.70;;;1.40;99.90;;;;;;5077531;28;20298;-70
2022/03/04 02:13:31;;;;;;;22.75;16.75;;;1.30;99.90;;;;;;5076557;28;20204;-70
2022/03/04 02:15:57;;;;;;;25.42;15.77;;;1.20;99.90;;;;;;5058553;28;20204;-70
2022/03/04 02:18:24;;;;;;;25.70;14.88;;;1.10;99.90;;;;;;5075998;28;20650;-71
2022/03/04 02:20:52;;;;;;;26.40;16.95;;;1.10;99.90;;;;;;5059155;28;20261;-70
2022/03/04 02:23:21;;;;;;;22.55;15.50;;;1.00;99.90;;;;;;5077849;28;20207;-71
2022/03/04 02:25:51;;;;;;;24.00;16.02;;;0.90;99.90;;;;;;5077841;28;20200;-70
2022/03/04 02:28:19;;;;;;;26.42;16.25;;;0.90;99.90;;;;;;5077153;28;20288;-70
2022/03/04 02:30:46;;;;;;;25.85;16.00;;;0.80;99.90;;;;;;5075663;28;20257;-70
2022/03/04 02:33:13;;;;;;;23.88;14.60;;;0.90;99.90;;;;;;5076431;28;20207;-70
2022/03/04 02:35:40;;;;;;;22.92;14.52;;;0.80;99.90;;;;;;5074855;28;20208;-70
2022/03/04 02:38:07;;;;;;;22.00;14.52;;;0.80;99.90;;;;;;5075656;28;20348;-70
2022/03/04 02:40:33;;;;;;;23.55;16.33;;;0.80;99.90;;;;;;5075062;28;20207;-70
2022/03/04 02:43:00;;;;;;;25.77;15.43;;;0.80;99.90;;;;;;5075757;28;20207;-70
2022/03/04 02:45:26;;;;;;;18.88;14.15;;;0.70;99.90;;;;;;5075275;28;20570;-71
2022/03/04 02:47:53;;;;;;;22.63;14.93;;;0.60;99.90;;;;;;5075690;28;20196;-70
2022/03/04 02:50:19;;;;;;;24.55;15.50;;;0.60;99.90;;;;;;5075800;28;20265;-71
2022/03/04 02:52:46;;;;;;;17.02;12.93;;;0.50;99.90;;;;;;5075490;28;20698;-70
2022/03/04 02:55:12;;;;;;;24.75;14.93;;;0.50;99.90;;;;;;5076184;28;20614;-71
2022/03/04 02:57:42;;;;;;;23.65;15.48;;;0.50;99.90;;;;;;5076378;28;20215;-70
2022/03/04 03:00:10;;;;;;;23.48;15.68;;;0.40;99.90;;;;;;5075780;28;20208;-70
2022/03/04 03:02:36;;;;;;;28.85;16.92;;;0.40;99.90;;;;;;5074464;28;20267;-70
2022/03/04 03:05:03;;;;;;;22.33;13.73;;;0.40;99.90;;;;;;5074932;28;20238;-71
2022/03/04 03:07:30;;;;;;;25.67;16.10;;;0.40;99.90;;;;;;5075206;28;20696;-70
2022/03/04 03:09:57;;;;;;;25.48;14.35;;;0.50;99.90;;;;;;5075783;28;20200;-71
2022/03/04 03:12:23;;;;;;;23.25;14.57;;;0.50;99.90;;;;;;5075148;28;20216;-71
2022/03/04 03:14:49;;;;;;;20.27;14.45;;;0.50;99.90;;;;;;5074578;28;20609;-70
2022/03/04 03:17:16;;;;;;;21.80;14.13;;;0.60;99.90;;;;;;5073498;28;20204;-70
2022/03/04 03:19:42;;;;;;;27.60;15.82;;;0.60;99.90;;;;;;5075170;28;20619;-70
2022/03/04 03:22:09;;;;;;;21.85;14.45;;;0.60;99.90;;;;;;5075302;28;20211;-70
2022/03/04 03:24:35;;;;;;;25.67;15.40;;;0.60;99.90;;;;;;5075433;28;20686;-70
2022/03/04 03:27:02;;;;;;;23.33;16.70;;;0.60;99.90;;;;;;5075065;28;20278;-70
2022/03/04 03:29:28;;;;;;;31.38;20.08;;;0.60;99.90;;;;;;5074881;28;20606;-71
2022/03/04 03:31:54;;;;;;;31.40;20.20;;;0.50;99.90;;;;;;5074462;28;20631;-70
2022/03/04 03:34:21;;;;;;;30.92;21.50;;;0.40;99.90;;;;;;5073439;28;20199;-70
2022/03/04 03:36:47;;;;;;;24.73;16.58;;;0.30;99.90;;;;;;5074135;28;20204;-70
2022/03/04 03:39:14;;;;;;;25.45;16.27;;;0.30;99.90;;;;;;5074286;28;20204;-70
2022/03/04 03:41:40;;;;;;;23.20;14.68;;;0.20;99.90;;;;;;5074250;28;20207;-70
2022/03/04 03:44:06;;;;;;;19.35;14.55;;;0.20;99.90;;;;;;5074450;28;20204;-71
2022/03/04 03:46:33;;;;;;;22.25;14.77;;;0.10;99.90;;;;;;5074083;28;20204;-70
2022/03/04 03:48:59;;;;;;;21.75;14.05;;;0.10;99.90;;;;;;5074881;28;20196;-71
2022/03/04 03:51:26;;;;;;;31.35;17.35;;;0.00;99.90;;;;;;5074875;28;20212;-71
2022/03/04 03:53:52;;;;;;;30.42;19.27;;;0.10;99.90;;;;;;5074599;28;20204;-71
2022/03/04 03:56:19;;;;;;;31.33;21.67;;;0.00;99.90;;;;;;5074583;28;20203;-71
2022/03/04 03:58:45;;;;;;;32.90;22.27;;;0.00;99.90;;;;;;5073478;28;20693;-71
2022/03/04 04:01:11;;;;;;;27.40;16.98;;;0.00;99.90;;;;;;5074196;28;20208;-73
2022/03/04 04:03:38;;;;;;;25.83;16.77;;;0.00;99.90;;;;;;5074680;28;20207;-71
2022/03/04 04:06:04;;;;;;;21.60;14.52;;;0.00;99.90;;;;;;5073843;28;20235;-71
2022/03/04 04:08:31;;;;;;;21.33;14.13;;;0.00;99.90;;;;;;5074513;28;20204;-72
2022/03/04 04:10:57;;;;;;;20.15;14.45;;;0.10;99.90;;;;;;5075693;28;20675;-71
2022/03/04 04:13:24;;;;;;;27.10;16.00;;;0.00;99.90;;;;;;5078415;28;20196;-71
2022/03/04 04:15:50;;;;;;;24.63;15.93;;;0.00;99.90;;;;;;5077107;28;20204;-72
2022/03/04 04:18:17;;;;;;;24.20;14.85;;;0.00;99.90;;;;;;5078363;28;20253;-71
2022/03/04 04:20:43;;;;;;;25.13;15.50;;;0.00;99.90;;;;;;5078325;28;20539;-71
2022/03/04 04:23:10;;;;;;;24.17;15.50;;;0.10;99.90;;;;;;5079022;28;20660;-71
2022/03/04 04:25:36;;;;;;;25.90;14.88;;;0.00;99.90;;;;;;5078188;28;20682;-71
2022/03/04 04:28:03;;;;;;;22.13;15.18;;;0.00;99.90;;;;;;5079797;28;20690;-71
2022/03/04 04:30:30;;;;;;;26.65;16.10;;;0.00;99.90;;;;;;5077719;28;20663;-71
2022/03/04 04:32:57;;;;;;;27.38;16.67;;;0.00;99.90;;;;;;5078138;28;20702;-71
2022/03/04 04:35:23;;;;;;;28.70;16.02;;;0.00;99.90;;;;;;5078651;28;20204;-71
2022/03/04 04:37:50;;;;;;;27.45;16.25;;;0.00;99.90;;;;;;5077406;28;20196;-72
2022/03/04 04:40:16;;;;;;;31.20;18.13;;;0.00;99.90;;;;;;5076369;28;20196;-71
2022/03/04 04:42:43;;;;;;;22.50;15.48;;;0.00;99.90;;;;;;5077684;28;20204;-72
2022/03/04 04:45:10;;;;;;;24.88;16.20;;;0.00;99.90;;;;;;5077006;28;20204;-71
2022/03/04 04:47:36;;;;;;;25.27;16.00;;;0.00;99.90;;;;;;5077667;28;20200;-71
2022/03/04 04:50:04;;;;;;;22.48;14.80;;;0.00;99.90;;;;;;5077314;28;20208;-71
2022/03/04 04:52:31;;;;;;;26.25;14.57;;;0.00;99.90;;;;;;5077458;28;20220;-71
2022/03/04 04:54:57;;;;;;;34.83;16.25;;;0.00;99.90;;;;;;5077580;28;20202;-71
2022/03/04 04:57:23;;;;;;;25.67;16.63;;;0.00;99.90;;;;;;5076052;28;20250;-71
2022/03/04 04:59:50;;;;;;;29.67;17.00;;;-0.10;99.90;;;;;;5077175;28;20208;-71
2022/03/04 05:02:16;;;;;;;24.40;17.10;;;-0.10;99.90;;;;;;5077395;28;20207;-70
2022/03/04 05:04:43;;;;;;;24.73;15.57;;;-0.10;99.90;;;;;;5076604;28;20228;-71
2022/03/04 05:07:09;;;;;;;30.00;18.17;;;-0.20;99.90;;;;;;5077529;28;20699;-70
2022/03/04 05:09:36;;;;;;;30.13;16.73;;;-0.20;99.90;;;;;;5077236;28;20207;-70
2022/03/04 05:12:02;;;;;;;30.45;17.52;;;-0.20;99.90;;;;;;5076535;28;20708;-70
2022/03/04 05:14:29;;;;;;;28.02;16.77;;;-0.30;99.90;;;;;;5076958;28;20200;-70
2022/03/04 05:16:56;;;;;;;27.17;16.48;;;-0.30;99.90;;;;;;5076076;28;20200;-71
2022/03/04 05:19:22;;;;;;;27.73;17.65;;;-0.40;99.90;;;;;;5075645;28;20196;-71
2022/03/04 05:21:49;;;;;;;29.63;16.17;;;-0.40;99.90;;;;;;5075724;28;20223;-70
2022/03/04 05:24:15;;;;;;;31.17;17.02;;;-0.40;99.90;;;;;;5077016;28;20218;-71
2022/03/04 05:26:42;;;;;;;37.45;18.92;;;-0.30;99.90;;;;;;5076982;28;20204;-70
2022/03/04 05:29:11;;;;;;;27.85;16.63;;;-0.30;99.90;;;;;;5075823;28;20208;-71
2022/03/04 05:31:41;;;;;;;27.17;16.30;;;-0.30;99.90;;;;;;5076936;28;20216;-70
2022/03/04 05:34:08;;;;;;;26.88;16.52;;;-0.30;99.90;;;;;;5076821;28;20200;-70
2022/03/04 05:36:37;;;;;;;28.95;17.52;;;-0.30;99.90;;;;;;5076402;28;20196;-70
2022/03/04 05:39:06;;;;;;;35.78;19.35;;;-0.40;99.90;;;;;;5076191;28;20196;-71
2022/03/04 05:41:33;;;;;;;31.77;19.10;;;-0.40;99.90;;;;;;5076329;28;20203;-70
2022/03/04 05:43:59;;;;;;;32.72;18.55;;;-0.40;99.90;;;;;;5076433;28;20208;-71
2022/03/04 05:46:26;;;;;;;30.50;20.27;;;-0.50;99.90;;;;;;5076470;28;20257;-70
2022/03/04 05:48:52;;;;;;;35.13;19.23;;;-0.50;99.90;;;;;;5076019;28;20204;-70
2022/03/04 05:51:19;;;;;;;31.58;19.35;;;-0.50;99.90;;;;;;5076245;28;20222;-71
2022/03/04 05:53:45;;;;;;;30.25;19.42;;;-0.50;99.90;;;;;;5076337;28;20207;-71
2022/03/04 05:56:11;;;;;;;30.15;17.60;;;-0.60;99.90;;;;;;5075893;28;20196;-71
2022/03/04 05:58:38;;;;;;;28.95;17.38;;;-0.60;99.90;;;;;;5075744;28;20210;-70
2022/03/04 06:01:08;;;;;;;31.10;20.52;;;-0.70;99.90;;;;;;5075555;28;20215;-70
2022/03/04 06:03:36;;;;;;;34.83;22.98;;;-0.60;99.90;;;;;;5076542;28;20656;-71
2022/03/04 06:06:02;;;;;;;34.53;24.58;;;-0.60;99.90;;;;;;5075352;28;20242;-71
2022/03/04 06:08:29;;;;;;;38.00;23.77;;;-0.60;99.90;;;;;;5075706;28;20211;-71
2022/03/04 06:10:56;;;;;;;33.20;20.73;;;-0.60;99.90;;;;;;5075842;28;20722;-70
2022/03/04 06:13:23;;;;;;;33.35;19.17;;;-0.70;99.90;;;;;;5075770;28;20219;-70
2022/03/04 06:15:49;;;;;;;34.50;19.75;;;-0.60;99.90;;;;;;5074745;28;20207;-71
2022/03/04 06:18:15;;;;;;;37.60;19.15;;;-0.60;99.90;;;;;;5075886;28;20272;-70
2022/03/04 06:20:42;;;;;;;30.80;18.13;;;-0.60;99.90;;;;;;5075960;28;20558;-70
2022/03/04 06:23:09;;;;;;;32.95;19.40;;;-0.60;99.90;;;;;;5076146;28;20200;-70
2022/03/04 06:25:36;;;;;;;34.03;19.45;;;-0.60;99.90;;;;;;5075144;28;20211;-70
2022/03/04 06:28:03;;;;;;;30.92;18.52;;;-0.60;99.90;;;;;;5073819;28;20207;-70
2022/03/04 06:30:36;;;;;;;32.40;20.35;;;-0.60;99.90;;;;;;5075709;28;20684;-70
2022/03/04 06:35:49;;;;;;;39.33;20.00;;;-0.50;99.90;;;;;;5075122;28;20176;-70
2022/03/04 06:38:17;;;;;;;31.20;20.10;;;-0.50;99.90;;;;;;5075314;28;20211;-70
2022/03/04 06:40:45;;;;;;;37.08;20.38;;;-0.40;99.90;;;;;;5075869;28;20208;-72
2022/03/04 06:43:11;;;;;;;37.00;20.27;;;-0.40;99.90;;;;;;5074918;28;20693;-72
2022/03/04 06:45:42;;;;;;;31.25;19.40;;;-0.30;99.90;;;;;;5075026;28;20212;-71
2022/03/04 06:48:10;;;;;;;41.83;21.13;;;-0.30;99.90;;;;;;5074742;28;20578;-71
2022/03/04 06:50:36;;;;;;;35.97;21.58;;;-0.20;99.90;;;;;;5074858;28;20200;-72
2022/03/04 06:53:03;;;;;;;32.35;20.13;;;-0.20;99.90;;;;;;5073279;28;20216;-72
2022/03/04 06:55:31;;;;;;;32.10;19.80;;;0.00;99.90;;;;;;5074618;28;20199;-72
2022/03/04 06:57:57;;;;;;;38.20;21.42;;;0.00;99.90;;;;;;5074630;28;20195;-72
2022/03/04 07:00:25;;;;;;;37.72;21.67;;;0.00;99.90;;;;;;5073569;28;20200;-72
2022/03/04 07:02:52;;;;;;;32.88;18.77;;;0.10;99.90;;;;;;5075244;28;20211;-71
2022/03/04 07:05:21;;;;;;;36.92;19.48;;;0.20;99.90;;;;;;5074252;28;20273;-71
2022/03/04 07:07:52;;;;;;;37.63;21.30;;;0.20;99.90;;;;;;5073354;28;20731;-71
2022/03/04 07:10:19;;;;;;;31.83;20.27;;;0.20;99.90;;;;;;5074177;28;20180;-71
2022/03/04 07:12:46;;;;;;;34.30;19.95;;;0.30;99.90;;;;;;5073898;28;20227;-71
2022/03/04 07:15:14;;;;;;;30.92;18.80;;;0.30;99.90;;;;;;5074032;28;20671;-72
2022/03/04 07:17:40;;;;;;;39.58;19.75;;;0.40;99.90;;;;;;5074966;28;20195;-72
2022/03/04 07:20:08;;;;;;;32.15;21.10;;;0.40;99.90;;;;;;5074490;28;20200;-71
2022/03/04 07:22:35;;;;;;;39.53;20.77;;;0.50;99.90;;;;;;5074600;28;20325;-71
2022/03/04 07:25:11;;;;;;;37.67;21.15;;;0.60;99.90;;;;;;5074641;28;20546;-71
2022/03/04 07:27:37;;;;;;;33.42;21.40;;;0.60;99.90;;;;;;5073351;28;20207;-71
2022/03/04 07:30:07;;;;;;;37.10;21.55;;;0.70;99.90;;;;;;5074067;28;20204;-71
2022/03/04 07:32:33;;;;;;;31.50;19.95;;;0.80;99.90;;;;;;5073650;28;20230;-72
2022/03/04 07:35:00;;;;;;;37.22;21.52;;;0.80;99.90;;;;;;5073895;28;20631;-72
2022/03/04 07:37:27;;;;;;;38.50;21.77;;;0.90;99.90;;;;;;5074619;28;20206;-71
2022/03/04 07:39:53;;;;;;;33.50;21.35;;;1.00;99.90;;;;;;5074827;28;20564;-71
2022/03/04 07:42:21;;;;;;;33.47;21.15;;;1.10;99.90;;;;;;5074345;28;20204;-71
2022/03/04 07:44:47;;;;;;;35.65;20.35;;;1.10;99.90;;;;;;5073534;28;20728;-71
2022/03/04 07:47:13;;;;;;;33.03;21.52;;;1.20;99.90;;;;;;5073740;28;20620;-71
2022/03/04 07:49:42;;;;;;;41.38;21.23;;;1.40;99.90;;;;;;5073988;28;20208;-71
2022/03/04 07:52:09;;;;;;;40.85;23.75;;;1.50;99.90;;;;;;5074303;28;20219;-71
2022/03/04 07:54:36;;;;;;;35.65;22.83;;;1.50;99.90;;;;;;5074072;28;20199;-71
2022/03/04 07:57:03;;;;;;;38.42;21.73;;;1.60;99.90;;;;;;5073076;28;20648;-71
2022/03/04 07:59:30;;;;;;;38.88;21.73;;;1.80;99.90;;;;;;5074103;28;20306;-70
2022/03/04 08:01:56;;;;;;;36.25;22.00;;;2.00;99.90;;;;;;5073561;28;20196;-71
2022/03/04 08:04:23;;;;;;;34.50;22.10;;;2.00;99.90;;;;;;5073058;28;20226;-71
2022/03/04 08:06:49;;;;;;;34.17;21.33;;;2.10;99.90;;;;;;5073236;28;20211;-71
2022/03/04 08:09:16;;;;;;;31.90;21.02;;;2.10;99.90;;;;;;5073813;28;20608;-72
2022/03/04 08:11:44;;;;;;;31.83;22.13;;;2.20;99.90;;;;;;5072751;28;20200;-71
2022/03/04 08:14:11;;;;;;;33.28;22.77;;;2.30;99.90;;;;;;5073622;28;20203;-71
2022/03/04 08:16:37;;;;;;;36.58;23.85;;;2.40;99.90;;;;;;5074029;28;20199;-71
2022/03/04 08:19:05;;;;;;;36.63;22.58;;;2.50;99.90;;;;;;5074467;28;20230;-70
2022/03/04 08:21:31;;;;;;;39.97;23.30;;;2.60;99.90;;;;;;5073322;28;20206;-71
2022/03/04 08:23:58;;;;;;;37.88;22.50;;;2.70;99.90;;;;;;5073900;28;20204;-71
2022/03/04 08:26:24;;;;;;;36.28;23.50;;;2.60;99.90;;;;;;5073853;28;20196;-71
2022/03/04 08:28:51;;;;;;;40.10;23.05;;;2.80;99.90;;;;;;5073334;28;20580;-71
2022/03/04 08:31:17;;;;;;;34.70;22.85;;;2.90;99.90;;;;;;5073660;28;20265;-71
2022/03/04 08:33:45;;;;;;;34.95;22.67;;;2.90;99.90;;;;;;5072540;28;20216;-71
2022/03/04 08:36:13;;;;;;;39.30;23.33;;;2.90;99.90;;;;;;5073560;28;20785;-71
2022/03/04 08:38:39;;;;;;;32.45;21.50;;;3.00;99.90;;;;;;5073847;28;20219;-71
2022/03/04 08:41:06;;;;;;;37.70;25.35;;;3.20;99.90;;;;;;5073815;28;20211;-71
2022/03/04 08:43:34;;;;;;;32.25;21.30;;;3.30;99.90;;;;;;5072620;28;20206;-71
2022/03/04 08:46:04;;;;;;;38.25;24.25;;;3.30;99.90;;;;;;5073813;28;20235;-71
2022/03/04 08:48:30;;;;;;;32.75;24.63;;;3.50;99.90;;;;;;5074014;28;20204;-71
2022/03/04 08:50:57;;;;;;;32.35;23.23;;;3.50;99.90;;;;;;5073524;28;20603;-71
2022/03/04 08:53:23;;;;;;;39.63;23.92;;;3.60;99.90;;;;;;5072524;28;20632;-72
2022/03/04 08:55:50;;;;;;;37.63;22.95;;;3.70;99.90;;;;;;5073552;28;20200;-71
2022/03/04 08:58:17;;;;;;;38.10;23.60;;;3.80;99.90;;;;;;5076334;28;20207;-71
2022/03/04 09:00:44;;;;;;;31.92;21.55;;;3.90;99.90;;;;;;5077224;28;20202;-71
2022/03/04 09:03:10;;;;;;;33.75;22.45;;;3.90;99.90;;;;;;5076372;28;20211;-71
2022/03/04 09:05:37;;;;;;;36.47;24.00;;;3.80;99.90;;;;;;5076954;28;20318;-70
2022/03/04 09:08:04;;;;;;;37.83;23.65;;;3.80;99.90;;;;;;5075986;28;20200;-71
2022/03/04 09:10:30;;;;;;;35.10;22.98;;;4.00;99.90;;;;;;5077286;28;20212;-71
2022/03/04 09:12:57;;;;;;;33.08;23.13;;;4.10;99.90;;;;;;5076559;28;20227;-71
2022/03/04 09:15:24;;;;;;;34.42;21.95;;;4.20;99.90;;;;;;5076886;28;20200;-71
2022/03/04 09:17:51;;;;;;;34.20;24.40;;;4.10;99.90;;;;;;5076861;28;20206;-71
2022/03/04 09:20:19;;;;;;;37.53;24.13;;;4.10;99.90;;;;;;5076630;28;20629;-71
2022/03/04 09:22:46;;;;;;;36.42;23.98;;;4.30;99.90;;;;;;5076578;28;20200;-71
2022/03/04 09:25:14;;;;;;;34.58;24.63;;;4.40;99.90;;;;;;5074893;28;20200;-73
2022/03/04 09:27:42;;;;;;;32.78;23.63;;;4.60;99.90;;;;;;5076188;28;20288;-72
2022/03/04 09:30:11;;;;;;;34.40;24.30;;;4.60;99.90;;;;;;5076308;28;20204;-71
2022/03/04 09:32:38;;;;;;;33.88;22.52;;;4.50;99.90;;;;;;5075657;28;20707;-71
2022/03/04 09:35:05;;;;;;;36.17;24.25;;;4.60;99.90;;;;;;5075637;28;20204;-70
2022/03/04 09:37:32;;;;;;;39.63;25.23;;;4.50;99.90;;;;;;5075971;28;20229;-71
2022/03/04 09:39:59;;;;;;;34.63;24.23;;;4.80;99.90;;;;;;5075863;28;20196;-71
2022/03/04 09:42:25;;;;;;;39.10;24.65;;;4.90;99.90;;;;;;5074727;28;20787;-71
2022/03/04 09:44:52;;;;;;;35.60;24.67;;;5.10;99.90;;;;;;5074830;28;20196;-71
2022/03/04 09:47:22;;;;;;;34.28;23.92;;;5.00;99.90;;;;;;5075613;28;20204;-71
2022/03/04 09:49:51;;;;;;;36.63;24.80;;;5.20;99.90;;;;;;5074766;28;20542;-72
2022/03/04 09:52:18;;;;;;;33.95;24.92;;;5.30;99.90;;;;;;5074635;28;20204;-71
2022/03/04 09:54:48;;;;;;;41.13;25.95;;;5.40;99.90;;;;;;5075995;28;20196;-71
2022/03/04 09:57:16;;;;;;;36.80;24.38;;;5.30;99.90;;;;;;5076295;28;20203;-71
2022/03/04 09:59:43;;;;;;;32.38;23.23;;;5.30;99.90;;;;;;5076006;28;20200;-71
2022/03/04 10:02:14;;;;;;;31.90;24.83;;;5.40;99.90;;;;;;5076293;28;20208;-71
2022/03/04 10:04:41;;;;;;;35.75;25.27;;;5.40;99.90;;;;;;5075352;28;20223;-71
2022/03/04 10:07:09;;;;;;;32.75;25.15;;;5.60;99.90;;;;;;5075116;28;20212;-71
2022/03/04 10:09:39;;;;;;;37.95;25.17;;;5.50;99.90;;;;;;5073104;28;20200;-72
2022/03/04 10:12:07;;;;;;;36.25;25.63;;;5.60;99.90;;;;;;5075709;28;20577;-72
2022/03/04 10:14:35;;;;;;;48.80;26.83;;;5.80;99.90;;;;;;5075707;28;20601;-71
2022/03/04 10:17:02;;;;;;;34.55;24.75;;;5.90;99.90;;;;;;5075413;28;20211;-72
2022/03/04 10:19:33;;;;;;;36.95;26.45;;;6.10;99.90;;;;;;5074867;28;20685;-71
2022/03/04 10:22:04;;;;;;;40.95;26.65;;;6.20;99.90;;;;;;5075790;28;20195;-71
2022/03/04 10:24:31;;;;;;;40.78;26.23;;;6.30;99.90;;;;;;5074944;28;20188;-72
2022/03/04 10:27:07;;;;;;;38.45;26.40;;;6.50;99.90;;;;;;5075428;28;20210;-72
2022/03/04 10:29:37;;;;;;;38.15;26.20;;;6.80;99.90;;;;;;5074786;28;20665;-72
2022/03/04 10:32:16;;;;;;;33.95;25.05;;;6.60;99.90;;;;;;5075398;28;20604;-72
2022/03/04 10:34:48;;;;;;;43.78;28.08;;;6.80;99.90;;;;;;5075420;28;20204;-71
2022/03/04 10:37:16;;;;;;;44.92;27.20;;;6.90;99.90;;;;;;5057541;28;20674;-71
2022/03/04 10:40:13;;;;;;;38.38;26.38;;;6.90;99.90;;;;;;5075097;28;20204;-71
2022/03/04 10:42:45;;;;;;;34.47;24.25;;;7.00;99.90;;;;;;5075171;28;20586;-71
2022/03/04 10:45:23;;;;;;;39.95;26.10;;;7.00;99.90;;;;;;5073307;28;20286;-71
2022/03/04 10:48:02;;;;;;;33.63;24.80;;;7.10;99.90;;;;;;5074771;28;20192;-71
2022/03/04 10:50:32;;;;;;;41.13;26.27;;;7.40;99.90;;;;;;5074689;28;20196;-71
2022/03/04 10:53:14;;;;;;;39.67;25.83;;;7.50;99.90;;;;;;5074232;28;20246;-71
2022/03/04 10:55:47;;;;;;;42.90;29.10;;;7.60;99.90;;;;;;5073013;28;20233;-71
2022/03/04 10:58:22;;;;;;;35.63;26.17;;;7.80;99.90;;;;;;5073998;28;20721;-71
2022/03/04 11:00:53;;;;;;;37.58;26.73;;;7.70;99.90;;;;;;5074681;28;20180;-71
2022/03/04 11:03:25;;;;;;;35.53;26.50;;;7.60;99.90;;;;;;5074307;28;20208;-71
2022/03/04 11:05:54;;;;;;;32.97;25.25;;;7.60;99.90;;;;;;5074114;28;20239;-72
2022/03/04 11:08:20;;;;;;;36.05;25.63;;;7.80;99.90;;;;;;5073740;28;20204;-71
2022/03/04 11:10:48;;;;;;;35.72;26.30;;;7.80;99.90;;;;;;5073328;28;20203;-71
2022/03/04 11:13:14;;;;;;;35.85;26.13;;;8.40;99.90;;;;;;5074706;28;20215;-71
2022/03/04 11:15:42;;;;;;;33.05;24.48;;;8.80;99.90;;;;;;5074580;28;20250;-71
2022/03/04 11:18:11;;;;;;;32.80;25.77;;;9.60;99.90;;;;;;5074328;28;20652;-71
2022/03/04 11:20:42;;;;;;;35.80;26.45;;;9.10;99.90;;;;;;5074079;28;20191;-72
2022/03/04 11:23:10;;;;;;;31.63;26.73;;;10.00;99.90;;;;;;5074074;28;20204;-72
2022/03/04 11:25:39;;;;;;;36.30;28.10;;;10.50;99.90;;;;;;5073805;28;20252;-70
2022/03/04 11:28:17;;;;;;;32.55;25.67;;;10.60;99.90;;;;;;5074154;28;21180;-70
2022/03/04 11:30:46;;;;;;;31.43;25.90;;;10.90;99.90;;;;;;5073727;28;20294;-70
2022/03/04 11:33:12;;;;;;;35.33;27.50;;;10.40;99.90;;;;;;5073824;28;20654;-70
2022/03/04 11:35:42;;;;;;;30.13;26.90;;;10.50;99.90;;;;;;5074024;28;21157;-71
2022/03/04 11:38:10;;;;;;;33.67;26.47;;;10.60;99.90;;;;;;5074289;28;20610;-70
2022/03/04 11:40:38;;;;;;;37.92;25.88;;;10.90;99.90;;;;;;5073914;28;21191;-70
2022/03/04 11:43:14;;;;;;;30.13;25.35;;;11.00;99.90;;;;;;5072763;28;20269;-70
2022/03/04 11:45:41;;;;;;;33.83;26.00;;;10.80;99.90;;;;;;5074285;28;20184;-70
2022/03/04 11:48:11;;;;;;;34.20;25.97;;;10.90;99.90;;;;;;5073637;28;20597;-70
2022/03/04 11:50:48;;;;;;;32.05;24.90;;;11.60;99.90;;;;;;5073071;28;21246;-69
2022/03/04 11:53:16;;;;;;;27.93;24.90;;;11.60;99.90;;;;;;5073502;28;20269;-69
2022/03/04 11:56:24;;;;;;;26.40;23.57;;;11.40;99.90;;;;;;5073755;28;20642;-70
2022/03/04 11:58:57;;;;;;;29.57;25.43;;;11.60;99.90;;;;;;5030494;28;20640;-70
2022/03/04 12:01:28;;;;;;;28.93;25.77;;;11.70;99.90;;;;;;5068725;28;20634;-70
2022/03/04 12:04:18;;;;;;;29.00;25.90;;;12.00;99.90;;;;;;5072955;28;20644;-70
2022/03/04 12:07:05;;;;;;;29.67;24.60;;;12.30;99.90;;;;;;5073853;28;20634;-71
2022/03/04 12:09:32;;;;;;;26.27;23.47;;;12.50;99.90;;;;;;5073590;28;20575;-71
2022/03/04 12:12:19;;;;;;;28.57;23.70;;;12.10;99.90;;;;;;5073548;28;20951;-71
2022/03/04 12:14:52;;;;;;;30.50;23.70;;;11.80;99.90;;;;;;5073092;28;20561;-71
2022/03/04 12:17:20;;;;;;;33.90;24.13;;;11.80;99.90;;;;;;5073826;28;20647;-71
2022/03/04 12:19:48;;;;;;;25.00;20.87;;;12.10;99.90;;;;;;5073268;28;20621;-71
2022/03/04 12:22:16;;;;;;;26.80;23.97;;;12.30;99.90;;;;;;5073033;28;21015;-71
2022/03/04 12:25:06;;;;;;;27.53;24.53;;;12.50;99.90;;;;;;5074665;28;20676;-71
2022/03/04 12:27:39;;;;;;;27.50;24.17;;;13.20;99.90;;;;;;5075103;28;20645;-71
2022/03/04 12:30:20;;;;;;;26.87;23.93;;;13.40;99.90;;;;;;5074583;28;20582;-71
2022/03/04 12:32:53;;;;;;;27.87;23.20;;;13.10;99.90;;;;;;5078132;28;21030;-70
2022/03/04 12:35:22;;;;;;;27.87;21.80;;;13.40;99.90;;;;;;5078426;28;20639;-71
2022/03/04 12:37:49;;;;;;;25.40;22.60;;;13.80;99.90;;;;;;5078869;28;20610;-70
2022/03/04 12:40:17;;;;;;;26.43;23.73;;;13.70;99.90;;;;;;5079004;28;20606;-70